Time;durP1;ratioP1;P1;durP2;ratioP2;P2;SDS_P1;SDS_P2;PMS_P1;PMS_P2;Temp;Humidity;BMP_temperature;BMP_pressure;BME280_temperature;BME280_humidity;BME280_pressure;Samples;Min_cycle;Max_cycle;Signal;HPM_P1;HPM_P2
2023/12/20 00:01:58;;;;;;;;;;;6.50;99.90;;;;;;2616094;47;19957;-73
2023/12/20 00:04:28;;;;;;;;;;;6.50;99.90;;;;;;2614772;47;19939;-73
2023/12/20 00:06:58;;;;;;;;;;;6.50;99.90;;;;;;2617424;53;20022;-74
2023/12/20 00:09:30;;;;;;;;;;;6.40;99.90;;;;;;2613040;54;19946;-74
2023/12/20 00:12:00;;;;;;;;;;;6.50;99.90;;;;;;2614217;54;19941;-73
2023/12/20 00:14:30;;;;;;;;;;;6.40;99.90;;;;;;2614705;39;20145;-74
2023/12/20 00:16:59;;;;;;;;;;;6.40;99.90;;;;;;2616657;46;19953;-74
2023/12/20 00:19:29;;;;;;;;;;;6.40;99.90;;;;;;2614582;54;19945;-73
2023/12/20 00:21:59;;;;;;;;;;;6.30;99.90;;;;;;2615888;47;19950;-74
2023/12/20 00:24:31;;;;;;;;;;;6.30;99.90;;;;;;2614438;54;19953;-72
2023/12/20 00:27:01;;;;;;;;;;;6.20;99.90;;;;;;2617041;47;19947;-73
2023/12/20 00:29:31;;;;;;;;;;;6.30;99.90;;;;;;2616583;54;20087;-73
2023/12/20 00:32:00;;;;;;;;;;;6.30;99.90;;;;;;2616126;54;19951;-73
2023/12/20 00:34:30;;;;;;;;;;;6.20;99.90;;;;;;2616958;47;20418;-75
2023/12/20 00:36:59;;;;;;;;;;;6.20;99.90;;;;;;2613208;54;19958;-74
2023/12/20 00:39:32;;;;;;;;;;;6.30;99.90;;;;;;2619371;54;19950;-72
2023/12/20 00:42:02;;;;;;;;;;;6.20;99.90;;;;;;2626048;53;19946;-73
2023/12/20 00:44:32;;;;;;;;;;;6.20;99.90;;;;;;2622170;54;19950;-73
2023/12/20 00:47:01;;;;;;;;;;;6.20;99.90;;;;;;2623718;54;20003;-72
2023/12/20 00:49:31;;;;;;;;;;;6.20;99.90;;;;;;2614902;54;19942;-73
2023/12/20 00:52:01;;;;;;;;;;;6.10;99.90;;;;;;2617544;46;19969;-73
2023/12/20 00:54:33;;;;;;;;;;;6.10;99.90;;;;;;2612782;50;19951;-73
2023/12/20 00:57:03;;;;;;;;;;;6.10;99.90;;;;;;2616135;54;19970;-74
2023/12/20 00:59:33;;;;;;;;;;;6.10;99.90;;;;;;2616088;47;19942;-73
2023/12/20 01:02:02;;;;;;;;;;;6.10;99.90;;;;;;2612946;51;20011;-74
2023/12/20 01:04:32;;;;;;;;;;;6.10;99.90;;;;;;2615365;47;20030;-74
2023/12/20 01:07:02;;;;;;;;;;;6.10;99.90;;;;;;2616159;54;19946;-73
2023/12/20 01:09:34;;;;;;;;;;;6.10;99.90;;;;;;2616101;47;19950;-73
2023/12/20 01:12:03;;;;;;;;;;;6.10;99.90;;;;;;2614022;47;20500;-74
2023/12/20 01:14:33;;;;;;;;;;;6.50;99.90;;;;;;2615589;46;19985;-73
2023/12/20 01:17:03;;;;;;;;;;;6.10;99.90;;;;;;2617421;49;19954;-73
2023/12/20 01:19:32;;;;;;;;;;;6.10;99.90;;;;;;2617589;47;19950;-73
2023/12/20 01:22:03;;;;;;;;;;;6.10;99.90;;;;;;2616285;54;20019;-73
2023/12/20 01:24:35;;;;;;;;;;;6.10;99.90;;;;;;2614806;54;19973;-73
2023/12/20 01:27:05;;;;;;;;;;;6.10;99.90;;;;;;2616355;47;20030;-73
2023/12/20 01:29:35;;;;;;;;;;;6.10;99.90;;;;;;2615864;54;19954;-74
2023/12/20 01:32:05;;;;;;;;;;;6.10;99.90;;;;;;2615457;46;19966;-73
2023/12/20 01:34:34;;;;;;;;;;;6.10;99.90;;;;;;2616735;52;19939;-72
2023/12/20 01:37:04;;;;;;;;;;;6.10;99.90;;;;;;2614897;47;19946;-73
2023/12/20 01:39:37;;;;;;;;;;;6.10;99.90;;;;;;2616205;54;19946;-72
2023/12/20 01:42:07;;;;;;;;;;;6.10;99.90;;;;;;2615909;54;20444;-73
2023/12/20 01:44:36;;;;;;;;;;;6.10;99.90;;;;;;2615238;54;19946;-73
2023/12/20 01:47:06;;;;;;;;;;;6.10;99.90;;;;;;2616189;54;20418;-72
2023/12/20 01:49:36;;;;;;;;;;;6.10;99.90;;;;;;2616063;54;19945;-73
2023/12/20 01:52:06;;;;;;;;;;;6.10;99.90;;;;;;2615403;54;20023;-73
2023/12/20 01:54:43;;;;;;;;;;;6.10;99.90;;;;;;2613979;48;19950;-73
2023/12/20 01:57:12;;;;;;;;;;;6.10;99.90;;;;;;2615840;54;20010;-73
2023/12/20 01:59:42;;;;;;;;;;;6.10;99.90;;;;;;2616152;54;19946;-73
2023/12/20 02:02:12;;;;;;;;;;;6.20;99.90;;;;;;2616559;54;19950;-72
2023/12/20 02:04:43;;;;;;;;;;;6.20;99.90;;;;;;2615611;54;19963;-72
2023/12/20 02:07:13;;;;;;;;;;;6.20;99.90;;;;;;2615548;39;20358;-73
2023/12/20 02:09:46;;;;;;;;;;;6.20;99.90;;;;;;2615282;39;20327;-73
2023/12/20 02:12:15;;;;;;;;;;;6.30;99.90;;;;;;2615592;47;19939;-73
2023/12/20 02:14:45;;;;;;;;;;;6.30;99.90;;;;;;2615630;47;19935;-74
2023/12/20 02:17:15;;;;;;;;;;;6.30;99.90;;;;;;2616052;54;20477;-73
2023/12/20 02:19:44;;;;;;;;;;;6.30;99.90;;;;;;2616779;39;20306;-72
2023/12/20 02:22:16;;;;;;;;;;;6.40;99.90;;;;;;2615953;54;19938;-73
2023/12/20 02:24:46;;;;;;;;;;;5.70;99.90;;;;;;2616180;54;19939;-74
2023/12/20 02:27:18;;;;;;;;;;;6.40;99.90;;;;;;2614005;46;19961;-74
2023/12/20 02:29:49;;;;;;;;;;;6.40;99.90;;;;;;2625424;47;19946;-73
2023/12/20 02:32:19;;;;;;;;;;;6.40;99.90;;;;;;2615996;54;20826;-73
2023/12/20 02:34:50;;;;;;;;;;;6.40;99.90;;;;;;2616634;47;20757;-72
2023/12/20 02:37:22;;;;;;;;;;;6.40;99.90;;;;;;2616408;54;19947;-74
2023/12/20 02:39:52;;;;;;;;;;;6.40;99.90;;;;;;2615743;54;19946;-74
2023/12/20 02:42:22;;;;;;;;;;;6.40;99.90;;;;;;2614900;54;19939;-74
2023/12/20 02:44:51;;;;;;;;;;;6.30;99.90;;;;;;2615764;52;19951;-73
2023/12/20 02:47:21;;;;;;;;;;;6.30;99.90;;;;;;2617111;47;19953;-73
2023/12/20 02:49:52;;;;;;;;;;;6.30;99.90;;;;;;2616718;47;19958;-73
2023/12/20 02:52:25;;;;;;;;;;;6.30;99.90;;;;;;2616091;54;19946;-74
2023/12/20 02:54:54;;;;;;;;;;;6.40;99.90;;;;;;2614831;47;20487;-75
2023/12/20 02:57:24;;;;;;;;;;;6.80;99.90;;;;;;2615926;47;20478;-73
2023/12/20 02:59:54;;;;;;;;;;;6.40;99.90;;;;;;2615379;47;19947;-73
2023/12/20 03:02:23;;;;;;;;;;;6.50;99.90;;;;;;2616834;47;19938;-73
2023/12/20 03:04:54;;;;;;;;;;;6.50;99.90;;;;;;2614986;47;19954;-73
2023/12/20 03:07:26;;;;;;;;;;;6.50;99.90;;;;;;2615949;54;20022;-72
2023/12/20 03:09:56;;;;;;;;;;;6.50;99.90;;;;;;2614836;47;19946;-74
2023/12/20 03:12:45;;;;;;;;;;;6.50;99.90;;;;;;2614756;47;19942;-73
2023/12/20 03:15:15;;;;;;;;;;;6.50;99.90;;;;;;2614839;54;19958;-73
2023/12/20 03:17:45;;;;;;;;;;;6.50;99.90;;;;;;2616359;54;19948;-72
2023/12/20 03:20:15;;;;;;;;;;;6.50;99.90;;;;;;2615162;54;19962;-75
2023/12/20 03:22:47;;;;;;;;;;;6.60;99.90;;;;;;2614982;50;19939;-72
2023/12/20 03:25:17;;;;;;;;;;;6.60;99.90;;;;;;2614452;54;19947;-72
2023/12/20 03:27:46;;;;;;;;;;;6.60;99.90;;;;;;2615816;47;19954;-73
2023/12/20 03:30:17;;;;;;;;;;;6.60;99.90;;;;;;2615176;51;19973;-73
2023/12/20 03:32:47;;;;;;;;;;;6.60;99.90;;;;;;2614502;47;19950;-73
2023/12/20 03:43:18;;;;;;;;;;;6.60;99.90;;;;;;2612898;54;19986;-73
2023/12/20 03:45:48;;;;;;;;;;;6.60;99.90;;;;;;2613732;47;19982;-73
2023/12/20 03:48:18;;;;;;;;;;;6.60;99.90;;;;;;2616550;47;20002;-73
2023/12/20 03:50:47;;;;;;;;;;;6.60;99.90;;;;;;2615999;54;19955;-72
2023/12/20 03:53:17;;;;;;;;;;;6.60;99.90;;;;;;2614923;47;19946;-72
2023/12/20 03:55:47;;;;;;;;;;;6.60;99.90;;;;;;2612450;54;19939;-73
2023/12/20 03:58:19;;;;;;;;;;;6.60;99.90;;;;;;2615606;47;19945;-73
2023/12/20 04:00:49;;;;;;;;;;;6.70;99.90;;;;;;2615749;54;20073;-73
2023/12/20 04:03:18;;;;;;;;;;;6.70;99.90;;;;;;2614013;54;19958;-73
2023/12/20 04:05:48;;;;;;;;;;;6.70;99.90;;;;;;2615548;47;19954;-74
2023/12/20 04:08:18;;;;;;;;;;;6.60;99.90;;;;;;2616201;54;19961;-73
2023/12/20 04:10:48;;;;;;;;;;;6.60;99.90;;;;;;2614282;54;19962;-73
2023/12/20 04:13:20;;;;;;;;;;;6.60;99.90;;;;;;2615920;39;20381;-73
2023/12/20 04:15:51;;;;;;;;;;;6.60;99.90;;;;;;2618587;54;19945;-72
2023/12/20 04:18:21;;;;;;;;;;;6.60;99.90;;;;;;2624116;54;19951;-74
2023/12/20 04:20:51;;;;;;;;;;;6.60;99.90;;;;;;2616734;47;19951;-73
2023/12/20 04:23:21;;;;;;;;;;;6.60;99.90;;;;;;2615843;54;19946;-74
2023/12/20 04:25:50;;;;;;;;;;;6.70;99.90;;;;;;2614294;54;20004;-73
2023/12/20 04:28:22;;;;;;;;;;;6.90;99.90;;;;;;2616729;39;20366;-73
2023/12/20 04:30:52;;;;;;;;;;;6.70;99.90;;;;;;2616202;47;19947;-72
2023/12/20 04:33:22;;;;;;;;;;;6.70;99.90;;;;;;2614186;47;20017;-74
2023/12/20 04:35:52;;;;;;;;;;;6.70;99.90;;;;;;2616133;47;19938;-74
2023/12/20 04:38:22;;;;;;;;;;;6.70;99.90;;;;;;2616231;54;19954;-72
2023/12/20 04:40:51;;;;;;;;;;;6.70;99.90;;;;;;2615126;54;20732;-73
2023/12/20 04:43:23;;;;;;;;;;;6.70;99.90;;;;;;2616081;47;19951;-71
2023/12/20 04:45:54;;;;;;;;;;;6.80;99.90;;;;;;2615598;47;19973;-71
2023/12/20 04:48:24;;;;;;;;;;;6.80;99.90;;;;;;2615298;46;19946;-72
2023/12/20 04:50:53;;;;;;;;;;;6.80;99.90;;;;;;2615212;47;19946;-71
2023/12/20 04:53:23;;;;;;;;;;;6.70;99.90;;;;;;2614630;54;19945;-71
2023/12/20 04:55:52;;;;;;;;;;;6.70;99.90;;;;;;2614728;54;19946;-72
2023/12/20 04:58:25;;;;;;;;;;;6.80;99.90;;;;;;2617600;46;19965;-72
2023/12/20 05:00:55;;;;;;;;;;;6.70;99.90;;;;;;2617760;54;19946;-72
2023/12/20 05:03:24;;;;;;;;;;;6.80;99.90;;;;;;2617994;54;19998;-72
2023/12/20 05:05:54;;;;;;;;;;;6.70;99.90;;;;;;2616334;54;19934;-72
2023/12/20 05:08:24;;;;;;;;;;;6.70;99.90;;;;;;2615206;54;19951;-71
2023/12/20 05:10:56;;;;;;;;;;;6.70;99.90;;;;;;2613221;54;19954;-72
2023/12/20 05:13:28;;;;;;;;;;;6.80;99.90;;;;;;2609231;54;19946;-72
2023/12/20 05:16:13;;;;;;;;;;;6.70;99.90;;;;;;2609676;47;20465;-72
2023/12/20 05:18:43;;;;;;;;;;;6.60;99.90;;;;;;2614334;47;19950;-72
2023/12/20 05:21:13;;;;;;;;;;;6.60;99.90;;;;;;2612155;47;19973;-71
2023/12/20 05:23:42;;;;;;;;;;;6.60;99.90;;;;;;2613322;54;19950;-73
2023/12/20 05:26:12;;;;;;;;;;;6.60;99.90;;;;;;2615183;54;19942;-73
2023/12/20 05:28:44;;;;;;;;;;;6.60;99.90;;;;;;2616104;39;20349;-71
2023/12/20 05:31:14;;;;;;;;;;;6.50;99.90;;;;;;2614021;47;19950;-73
2023/12/20 05:33:43;;;;;;;;;;;6.50;99.90;;;;;;2615250;50;19939;-73
2023/12/20 05:36:15;;;;;;;;;;;6.50;99.90;;;;;;2614943;47;19946;-73
2023/12/20 05:38:44;;;;;;;;;;;6.60;99.90;;;;;;2615060;47;19946;-73
2023/12/20 05:41:14;;;;;;;;;;;6.60;99.90;;;;;;2613656;47;19942;-72
2023/12/20 05:43:46;;;;;;;;;;;6.60;99.90;;;;;;2614351;47;19954;-71
2023/12/20 05:46:16;;;;;;;;;;;6.60;99.90;;;;;;2613287;47;19950;-73
2023/12/20 05:48:47;;;;;;;;;;;6.60;99.90;;;;;;2614788;54;19957;-74
2023/12/20 05:51:17;;;;;;;;;;;6.50;99.90;;;;;;2616971;39;20376;-72
2023/12/20 05:53:46;;;;;;;;;;;6.70;99.90;;;;;;2616132;47;19953;-73
2023/12/20 05:56:16;;;;;;;;;;;6.60;99.90;;;;;;2611449;47;19951;-73
2023/12/20 05:58:48;;;;;;;;;;;6.60;99.90;;;;;;2615492;54;19961;-72
2023/12/20 06:01:19;;;;;;;;;;;6.50;99.90;;;;;;2612045;50;19946;-72
2023/12/20 06:03:48;;;;;;;;;;;6.60;99.90;;;;;;2613683;54;20038;-71
2023/12/20 06:06:18;;;;;;;;;;;6.60;99.90;;;;;;2618874;47;19954;-73
2023/12/20 06:08:48;;;;;;;;;;;6.50;99.90;;;;;;2622139;39;20345;-72
2023/12/20 06:11:17;;;;;;;;;;;6.50;99.90;;;;;;2613966;47;19946;-73
2023/12/20 06:13:51;;;;;;;;;;;6.50;99.90;;;;;;2615304;47;19943;-73
2023/12/20 06:16:21;;;;;;;;;;;6.50;99.90;;;;;;2614454;49;19977;-73
2023/12/20 06:18:51;;;;;;;;;;;6.50;99.90;;;;;;2614845;54;20005;-73
2023/12/20 06:21:21;;;;;;;;;;;6.40;99.90;;;;;;2612851;52;19961;-74
2023/12/20 06:23:50;;;;;;;;;;;6.40;99.90;;;;;;2615855;54;19946;-72
2023/12/20 06:26:20;;;;;;;;;;;6.50;99.90;;;;;;2615011;47;19950;-74
2023/12/20 06:28:52;;;;;;;;;;;6.30;99.90;;;;;;2615559;47;19946;-73
2023/12/20 06:31:22;;;;;;;;;;;6.30;99.90;;;;;;2615189;47;19954;-72
2023/12/20 06:33:57;;;;;;;;;;;6.30;99.90;;;;;;2614048;47;19947;-73
2023/12/20 06:36:27;;;;;;;;;;;6.30;99.90;;;;;;2614639;54;19953;-71
2023/12/20 06:38:57;;;;;;;;;;;6.30;99.90;;;;;;2615266;54;20038;-73
2023/12/20 06:41:27;;;;;;;;;;;6.20;99.90;;;;;;2614764;47;19946;-72
2023/12/20 06:43:59;;;;;;;;;;;6.10;99.90;;;;;;2614552;47;19943;-71
2023/12/20 06:46:29;;;;;;;;;;;6.10;99.90;;;;;;2615793;47;19950;-71
2023/12/20 06:48:58;;;;;;;;;;;6.10;99.90;;;;;;2615621;47;20465;-72
2023/12/20 06:51:28;;;;;;;;;;;6.10;99.90;;;;;;2615527;54;20492;-73
2023/12/20 06:53:58;;;;;;;;;;;6.10;99.90;;;;;;2614554;47;19954;-73
2023/12/20 06:56:27;;;;;;;;;;;6.10;99.90;;;;;;2616222;47;20448;-72
2023/12/20 06:59:00;;;;;;;;;;;6.10;99.90;;;;;;2615953;54;19954;-73
2023/12/20 07:01:29;;;;;;;;;;;6.10;99.90;;;;;;2615820;46;19972;-73
2023/12/20 07:03:59;;;;;;;;;;;6.00;99.90;;;;;;2613651;54;20058;-72
2023/12/20 07:06:28;;;;;;;;;;;6.00;99.90;;;;;;2615620;47;19939;-73
2023/12/20 07:08:58;;;;;;;;;;;5.90;99.90;;;;;;2615071;54;19945;-72
2023/12/20 07:11:28;;;;;;;;;;;5.90;99.90;;;;;;2613582;54;20038;-71
2023/12/20 07:14:01;;;;;;;;;;;5.90;99.90;;;;;;2615550;54;20065;-71
2023/12/20 07:16:30;;;;;;;;;;;5.90;99.90;;;;;;2614412;47;19954;-73
2023/12/20 07:19:00;;;;;;;;;;;6.00;99.90;;;;;;2617526;54;19947;-73
2023/12/20 07:21:30;;;;;;;;;;;6.00;99.90;;;;;;2615952;54;19946;-74
2023/12/20 07:23:59;;;;;;;;;;;6.00;99.90;;;;;;2617046;47;19939;-72
2023/12/20 07:26:29;;;;;;;;;;;6.00;99.90;;;;;;2618873;54;20497;-74
2023/12/20 07:29:01;;;;;;;;;;;5.90;99.90;;;;;;2616673;51;19953;-64
2023/12/20 07:31:31;;;;;;;;;;;5.90;99.90;;;;;;2615463;54;21703;-65
2023/12/20 07:34:01;;;;;;;;;;;5.90;99.90;;;;;;2615349;47;20046;-65
2023/12/20 07:36:30;;;;;;;;;;;5.90;99.90;;;;;;2611914;54;20026;-66
2023/12/20 07:39:00;;;;;;;;;;;5.90;99.90;;;;;;2613159;39;20393;-64
2023/12/20 07:41:30;;;;;;;;;;;6.00;99.90;;;;;;2612199;47;19953;-65
2023/12/20 07:44:02;;;;;;;;;;;6.00;99.90;;;;;;2613621;47;19951;-65
2023/12/20 07:46:32;;;;;;;;;;;6.10;99.90;;;;;;2611672;54;21940;-64
2023/12/20 07:49:01;;;;;;;;;;;6.10;99.90;;;;;;2611796;54;19935;-64
2023/12/20 07:51:31;;;;;;;;;;;6.10;99.90;;;;;;2612462;54;20529;-65
2023/12/20 07:54:01;;;;;;;;;;;6.10;99.90;;;;;;2610767;39;20357;-66
2023/12/20 07:56:30;;;;;;;;;;;5.80;99.90;;;;;;2613553;47;19954;-64
2023/12/20 07:59:03;;;;;;;;;;;6.20;99.90;;;;;;2614561;54;19939;-63
2023/12/20 08:01:35;;;;;;;;;;;6.20;99.90;;;;;;2614898;47;19955;-73
2023/12/20 08:04:06;;;;;;;;;;;6.20;99.90;;;;;;2619246;46;19964;-79
2023/12/20 08:06:37;;;;;;;;;;;6.20;99.90;;;;;;2624042;54;19953;-78
2023/12/20 08:09:07;;;;;;;;;;;6.30;99.90;;;;;;2624618;54;19939;-78
2023/12/20 08:11:37;;;;;;;;;;;6.30;99.90;;;;;;2626587;46;19943;-81
2023/12/20 08:14:10;;;;;;;;;;;6.30;99.90;;;;;;2625035;47;20471;-78
2023/12/20 08:16:40;;;;;;;;;;;6.30;99.90;;;;;;2623867;54;19938;-77
2023/12/20 08:19:10;;;;;;;;;;;6.30;99.90;;;;;;2622860;51;20472;-78
2023/12/20 08:21:40;;;;;;;;;;;6.50;99.90;;;;;;2622228;47;19951;-78
2023/12/20 08:24:10;;;;;;;;;;;6.80;99.90;;;;;;2628472;47;19934;-78
2023/12/20 08:26:40;;;;;;;;;;;6.10;99.90;;;;;;2619533;47;19995;-78
2023/12/20 08:29:15;;;;;;;;;;;6.80;99.90;;;;;;2614750;47;19954;-78
2023/12/20 08:31:46;;;;;;;;;;;6.20;99.90;;;;;;2614049;54;19950;-78
2023/12/20 08:34:16;;;;;;;;;;;6.20;99.90;;;;;;2617673;39;20431;-78
2023/12/20 08:36:46;;;;;;;;;;;6.20;99.90;;;;;;2617592;54;19946;-76
2023/12/20 08:39:16;;;;;;;;;;;6.10;99.90;;;;;;2622808;54;19950;-77
2023/12/20 08:41:46;;;;;;;;;;;7.30;99.90;;;;;;2624613;39;20319;-78
2023/12/20 08:44:18;;;;;;;;;;;6.20;99.90;;;;;;2624585;54;19954;-77
2023/12/20 08:46:48;;;;;;;;;;;6.20;99.90;;;;;;2616689;54;20816;-78
2023/12/20 08:49:18;;;;;;;;;;;6.20;99.90;;;;;;2616387;54;19962;-78
2023/12/20 08:51:48;;;;;;;;;;;6.50;99.90;;;;;;2616008;47;19946;-78
2023/12/20 08:54:19;;;;;;;;;;;6.40;99.90;;;;;;2617801;47;20010;-79
2023/12/20 08:56:49;;;;;;;;;;;6.30;99.90;;;;;;2616948;47;19954;-77
2023/12/20 08:59:21;;;;;;;;;;;6.40;99.90;;;;;;2614848;54;19950;-77
2023/12/20 09:01:54;;;;;;;;;;;6.40;99.90;;;;;;2615576;47;19947;-77
2023/12/20 09:04:24;;;;;;;;;;;6.40;99.90;;;;;;2613880;54;20046;-77
2023/12/20 09:06:54;;;;;;;;;;;6.40;99.90;;;;;;2622206;39;20803;-76
2023/12/20 09:09:24;;;;;;;;;;;6.50;99.90;;;;;;2624902;47;19953;-80
2023/12/20 09:11:54;;;;;;;;;;;6.40;99.90;;;;;;2626351;54;19951;-77
2023/12/20 09:14:26;;;;;;;;;;;6.50;99.90;;;;;;2619426;46;19959;-78
2023/12/20 09:16:56;;;;;;;;;;;7.50;99.90;;;;;;2620773;46;20444;-77
2023/12/20 09:19:27;;;;;;;;;;;6.50;99.90;;;;;;2619562;54;19946;-76
2023/12/20 09:21:57;;;;;;;;;;;7.60;99.90;;;;;;2619341;47;19951;-76
2023/12/20 09:24:26;;;;;;;;;;;6.50;99.90;;;;;;2618810;54;20027;-77
2023/12/20 09:26:56;;;;;;;;;;;6.50;99.90;;;;;;2619767;46;19962;-77
2023/12/20 09:29:29;;;;;;;;;;;6.80;99.90;;;;;;2620496;54;19986;-77
2023/12/20 09:31:59;;;;;;;;;;;6.50;99.90;;;;;;2619758;47;19947;-78
2023/12/20 09:34:29;;;;;;;;;;;6.50;99.90;;;;;;2619976;47;19939;-77
2023/12/20 09:37:03;;;;;;;;;;;6.60;99.90;;;;;;2619489;47;19998;-78
2023/12/20 09:39:33;;;;;;;;;;;6.50;99.90;;;;;;2619149;47;19947;-75
2023/12/20 09:42:04;;;;;;;;;;;6.60;99.90;;;;;;2619362;47;19950;-75
2023/12/20 09:44:36;;;;;;;;;;;6.60;99.90;;;;;;2625841;47;19938;-78
2023/12/20 09:47:10;;;;;;;;;;;6.70;99.90;;;;;;2621235;47;19975;-78
2023/12/20 09:49:41;;;;;;;;;;;6.70;99.90;;;;;;2621318;31;20481;-76
2023/12/20 09:52:12;;;;;;;;;;;6.80;99.90;;;;;;2623848;54;19946;-80
2023/12/20 09:54:42;;;;;;;;;;;6.80;99.90;;;;;;2623493;47;21058;-79
2023/12/20 09:57:12;;;;;;;;;;;6.90;99.90;;;;;;2622427;54;19954;-79
2023/12/20 09:59:44;;;;;;;;;;;6.80;99.90;;;;;;2622659;47;19947;-79
2023/12/20 10:02:15;;;;;;;;;;;7.00;99.90;;;;;;2625628;47;19942;-79
2023/12/20 10:04:48;;;;;;;;;;;6.80;99.90;;;;;;2622185;47;19939;-78
2023/12/20 10:07:18;;;;;;;;;;;6.90;99.90;;;;;;2622837;54;20019;-77
2023/12/20 10:09:50;;;;;;;;;;;6.90;99.90;;;;;;2621735;47;19945;-77
2023/12/20 10:12:20;;;;;;;;;;;7.30;99.90;;;;;;2621368;47;19934;-78
2023/12/20 10:14:53;;;;;;;;;;;6.80;99.90;;;;;;2621815;54;19990;-78
2023/12/20 10:17:25;;;;;;;;;;;6.90;99.90;;;;;;2621363;54;19955;-78
2023/12/20 10:19:54;;;;;;;;;;;6.90;99.90;;;;;;2622433;47;19950;-79
2023/12/20 10:22:24;;;;;;;;;;;7.00;99.90;;;;;;2621540;54;19954;-77
2023/12/20 10:24:54;;;;;;;;;;;7.00;99.90;;;;;;2622602;47;20041;-78
2023/12/20 10:27:25;;;;;;;;;;;7.80;99.90;;;;;;2628850;54;19946;-78
2023/12/20 10:29:57;;;;;;;;;;;7.10;99.90;;;;;;2626385;47;19946;-77
2023/12/20 10:32:28;;;;;;;;;;;7.10;99.90;;;;;;2623040;54;19977;-78
2023/12/20 10:34:59;;;;;;;;;;;7.10;99.90;;;;;;2625167;54;20077;-80
2023/12/20 10:37:29;;;;;;;;;;;7.10;99.90;;;;;;2626756;47;19935;-79
2023/12/20 10:40:01;;;;;;;;;;;7.10;99.90;;;;;;2626138;54;19939;-79
2023/12/20 10:42:33;;;;;;;;;;;7.20;99.90;;;;;;2626096;39;20436;-77
2023/12/20 10:45:05;;;;;;;;;;;7.20;99.90;;;;;;2629201;54;20045;-80
2023/12/20 10:47:36;;;;;;;;;;;7.40;99.90;;;;;;2625821;54;19954;-78
2023/12/20 10:50:10;;;;;;;;;;;7.40;99.90;;;;;;2623164;47;19946;-80
2023/12/20 10:52:40;;;;;;;;;;;7.50;99.90;;;;;;2626772;47;19954;-81
2023/12/20 10:55:11;;;;;;;;;;;7.60;99.90;;;;;;2625460;47;19947;-77
2023/12/20 10:57:41;;;;;;;;;;;7.60;99.90;;;;;;2619368;54;19946;-79
2023/12/20 11:00:15;;;;;;;;;;;7.70;99.90;;;;;;2620486;47;19950;-76
2023/12/20 11:02:45;;;;;;;;;;;7.90;99.90;;;;;;2623200;54;19946;-80
2023/12/20 11:05:19;;;;;;;;;;;8.00;99.90;;;;;;2625447;54;19954;-76
2023/12/20 11:07:50;;;;;;;;;;;8.40;99.90;;;;;;2621338;54;20453;-78
2023/12/20 11:10:22;;;;;;;;;;;8.10;99.90;;;;;;2618995;47;19939;-77
2023/12/20 14:02:13;;;;;;;;;;;8.10;99.90;;;;;;2594129;54;21519;-74
2023/12/20 14:04:42;;;;;;;;;;;8.40;99.90;;;;;;2615921;47;19946;-73
2023/12/20 14:07:12;;;;;;;;;;;8.40;99.90;;;;;;2593285;47;19954;-72
2023/12/20 14:09:45;;;;;;;;;;;9.00;99.90;;;;;;2605900;54;20037;-70
2023/12/20 14:12:16;;;;;;;;;;;8.40;99.90;;;;;;2613478;46;20659;-72
2023/12/20 14:14:46;;;;;;;;;;;8.30;99.90;;;;;;2615564;54;20033;-69
2023/12/20 14:17:20;;;;;;;;;;;8.40;99.90;;;;;;2617035;47;19945;-71
2023/12/20 14:19:49;;;;;;;;;;;8.30;99.90;;;;;;2612852;39;20370;-71
2023/12/20 14:22:19;;;;;;;;;;;8.20;99.90;;;;;;2616346;47;19954;-71
2023/12/20 14:24:49;;;;;;;;;;;8.20;99.90;;;;;;2613803;47;19990;-71
2023/12/20 14:27:21;;;;;;;;;;;8.30;99.90;;;;;;2611699;47;19969;-73
2023/12/20 14:29:51;;;;;;;;;;;8.20;99.90;;;;;;2612698;47;20483;-72
2023/12/20 14:32:25;;;;;;;;;;;8.20;99.90;;;;;;2611697;46;19970;-74
2023/12/20 14:34:55;;;;;;;;;;;8.20;99.90;;;;;;2614855;39;20360;-74
2023/12/20 14:37:25;;;;;;;;;;;8.20;99.90;;;;;;2610836;54;19946;-77
2023/12/20 14:39:55;;;;;;;;;;;8.10;99.90;;;;;;2612935;47;19946;-77
2023/12/20 14:42:25;;;;;;;;;;;8.10;99.90;;;;;;2617049;39;20472;-76
2023/12/20 14:44:54;;;;;;;;;;;8.10;99.90;;;;;;2618332;54;20501;-75
2023/12/20 14:47:27;;;;;;;;;;;8.00;99.90;;;;;;2619875;50;19945;-77
2023/12/20 14:49:56;;;;;;;;;;;8.00;99.90;;;;;;2619372;39;20230;-75
2023/12/20 14:52:26;;;;;;;;;;;8.00;99.90;;;;;;2615281;47;19947;-76
2023/12/20 14:54:56;;;;;;;;;;;8.00;99.90;;;;;;2617792;47;19958;-76
2023/12/20 14:57:26;;;;;;;;;;;7.90;99.90;;;;;;2620445;47;19975;-76
2023/12/20 14:59:55;;;;;;;;;;;7.90;99.90;;;;;;2620096;39;20502;-76
2023/12/20 15:02:28;;;;;;;;;;;7.90;99.90;;;;;;2618597;47;19947;-77
2023/12/20 15:04:58;;;;;;;;;;;7.90;99.90;;;;;;2618049;47;19958;-77
2023/12/20 15:07:27;;;;;;;;;;;7.90;99.90;;;;;;2620761;39;20349;-75
2023/12/20 15:09:57;;;;;;;;;;;7.90;99.90;;;;;;2617947;47;19946;-75
2023/12/20 15:12:27;;;;;;;;;;;7.90;99.90;;;;;;2619450;47;19998;-75
2023/12/20 15:14:56;;;;;;;;;;;7.90;99.90;;;;;;2618215;47;19962;-77
2023/12/20 15:17:29;;;;;;;;;;;7.80;99.90;;;;;;2622853;54;19943;-76
2023/12/20 15:19:59;;;;;;;;;;;7.80;99.90;;;;;;2625807;39;20720;-77
2023/12/20 15:22:29;;;;;;;;;;;7.80;99.90;;;;;;2623717;47;19958;-76
2023/12/20 15:25:01;;;;;;;;;;;8.30;99.90;;;;;;2622251;47;19950;-76
2023/12/20 15:27:30;;;;;;;;;;;8.60;99.90;;;;;;2624810;47;19951;-77
2023/12/20 15:30:01;;;;;;;;;;;7.90;99.90;;;;;;2623929;47;19950;-76
2023/12/20 15:32:36;;;;;;;;;;;7.80;99.90;;;;;;2624286;47;19955;-74
2023/12/20 15:35:07;;;;;;;;;;;7.90;99.90;;;;;;2625425;47;19946;-75
2023/12/20 15:37:37;;;;;;;;;;;7.90;99.90;;;;;;2625392;47;19947;-74
2023/12/20 15:40:08;;;;;;;;;;;8.80;99.90;;;;;;2624167;47;19981;-75
2023/12/20 15:42:38;;;;;;;;;;;7.80;99.90;;;;;;2620925;47;19938;-76
2023/12/20 15:45:09;;;;;;;;;;;8.60;99.90;;;;;;2620036;47;19946;-78
2023/12/20 15:47:41;;;;;;;;;;;7.80;99.90;;;;;;2621137;54;19946;-78
2023/12/20 15:50:11;;;;;;;;;;;7.80;99.90;;;;;;2621269;54;19942;-73
2023/12/20 15:52:43;;;;;;;;;;;7.80;99.90;;;;;;2617817;39;20353;-73
2023/12/20 15:55:13;;;;;;;;;;;6.80;99.90;;;;;;2614379;47;20041;-72
2023/12/20 15:57:42;;;;;;;;;;;7.80;99.90;;;;;;2613964;54;19939;-72
2023/12/20 16:00:23;;;;;;;;;;;7.80;99.90;;;;;;2616222;54;20036;-73
2023/12/20 16:02:55;;;;;;;;;;;7.80;99.90;;;;;;2617626;47;19998;-73
2023/12/20 16:05:25;;;;;;;;;;;7.90;99.90;;;;;;2618483;47;19957;-72
2023/12/20 16:07:55;;;;;;;;;;;7.80;99.90;;;;;;2618063;47;19943;-72
2023/12/20 16:10:24;;;;;;;;;;;7.80;99.90;;;;;;2617485;47;19943;-71
2023/12/20 16:12:55;;;;;;;;;;;7.90;99.90;;;;;;2615981;47;19947;-73
2023/12/20 16:15:25;;;;;;;;;;;8.00;99.90;;;;;;2616506;50;19986;-72
2023/12/20 16:17:58;;;;;;;;;;;7.80;99.90;;;;;;2616566;54;19942;-71
2023/12/20 16:20:27;;;;;;;;;;;7.80;99.90;;;;;;2615495;54;19975;-72
2023/12/20 16:22:57;;;;;;;;;;;7.80;99.90;;;;;;2615956;54;19946;-72
2023/12/20 16:25:27;;;;;;;;;;;7.90;99.90;;;;;;2618973;39;20478;-75
2023/12/20 16:27:57;;;;;;;;;;;7.90;99.90;;;;;;2617498;54;19947;-72
2023/12/20 16:30:27;;;;;;;;;;;7.80;99.90;;;;;;2617063;47;20442;-72
2023/12/20 16:32:59;;;;;;;;;;;7.80;99.90;;;;;;2616935;47;20059;-72
2023/12/20 16:35:29;;;;;;;;;;;7.80;99.90;;;;;;2618249;54;19953;-67
2023/12/20 16:37:59;;;;;;;;;;;7.80;99.90;;;;;;2616315;54;19965;-71
2023/12/20 16:40:29;;;;;;;;;;;7.80;99.90;;;;;;2616439;46;20056;-72
2023/12/20 16:42:58;;;;;;;;;;;7.90;99.90;;;;;;2618344;39;20672;-71
2023/12/20 16:45:28;;;;;;;;;;;7.70;99.90;;;;;;2617741;54;19939;-71
2023/12/20 16:48:00;;;;;;;;;;;7.80;99.90;;;;;;2618246;54;19990;-71
2023/12/20 16:50:30;;;;;;;;;;;7.80;99.90;;;;;;2618142;47;19951;-72
2023/12/20 16:53:00;;;;;;;;;;;7.80;99.90;;;;;;2615738;54;19993;-72
2023/12/20 16:55:30;;;;;;;;;;;7.80;99.90;;;;;;2616927;47;19946;-72
2023/12/20 16:58:00;;;;;;;;;;;7.80;99.90;;;;;;2617063;47;20860;-72
2023/12/20 17:00:34;;;;;;;;;;;7.80;99.90;;;;;;2617358;54;20087;-72
2023/12/20 17:03:06;;;;;;;;;;;7.80;99.90;;;;;;2616867;47;19946;-72
2023/12/20 17:11:00;;;;;;;;;;;7.80;99.90;;;;;;2621555;46;19981;-71
2023/12/20 17:13:30;;;;;;;;;;;8.70;99.90;;;;;;2616321;47;19950;-71
2023/12/20 17:16:00;;;;;;;;;;;7.80;99.90;;;;;;2614114;39;20439;-71
2023/12/20 17:18:32;;;;;;;;;;;7.80;99.90;;;;;;2617513;54;19958;-72
2023/12/20 17:21:02;;;;;;;;;;;7.80;99.90;;;;;;2617789;47;20047;-71
2023/12/20 17:23:32;;;;;;;;;;;7.80;99.90;;;;;;2607930;54;20430;-77
2023/12/20 17:26:02;;;;;;;;;;;7.90;99.90;;;;;;2614232;54;19954;-76
2023/12/20 17:28:31;;;;;;;;;;;7.90;99.90;;;;;;2617970;47;19947;-76
2023/12/20 17:31:02;;;;;;;;;;;7.90;99.90;;;;;;2616874;39;20272;-76
2023/12/20 17:33:34;;;;;;;;;;;8.20;99.90;;;;;;2616651;54;19962;-76
2023/12/20 17:36:05;;;;;;;;;;;8.00;99.90;;;;;;2617035;47;19950;-76
2023/12/20 17:38:36;;;;;;;;;;;8.00;99.90;;;;;;2618996;54;19935;-75
2023/12/20 17:41:06;;;;;;;;;;;8.00;99.90;;;;;;2618075;46;19958;-75
2023/12/20 17:43:36;;;;;;;;;;;8.00;99.90;;;;;;2622107;39;20377;-74
2023/12/20 17:46:06;;;;;;;;;;;8.00;99.90;;;;;;2618795;47;19964;-76
2023/12/20 17:48:38;;;;;;;;;;;8.00;99.90;;;;;;2619543;54;19949;-77
2023/12/20 17:51:08;;;;;;;;;;;8.00;99.90;;;;;;2617789;54;20011;-76
2023/12/20 17:53:37;;;;;;;;;;;8.00;99.90;;;;;;2616277;47;19939;-76